Time;durP1;ratioP1;P1;durP2;ratioP2;P2;SDS_P1;SDS_P2;PMS_P1;PMS_P2;Temp;Humidity;BMP_temperature;BMP_pressure;BME280_temperature;BME280_humidity;BME280_pressure;Samples;Min_cycle;Max_cycle;Signal;HPM_P1;HPM_P2
2023/07/13 00:01:29;;;;;;;2.30;1.13;;;25.20;51.60;;;;;;5001256;28;20072;-66
2023/07/13 00:03:55;;;;;;;1.55;1.00;;;25.20;51.70;;;;;;5003067;28;20513;-66
2023/07/13 00:06:21;;;;;;;2.70;0.93;;;25.20;51.80;;;;;;5005287;28;20037;-66
2023/07/13 00:08:48;;;;;;;1.45;0.88;;;25.20;51.70;;;;;;4997770;28;20539;-66
2023/07/13 00:11:14;;;;;;;2.78;1.13;;;25.20;51.60;;;;;;5005467;28;20109;-66
2023/07/13 00:13:41;;;;;;;1.77;1.05;;;25.10;51.40;;;;;;4997660;28;20408;-66
2023/07/13 00:16:09;;;;;;;2.33;0.95;;;25.10;51.40;;;;;;5000150;28;20477;-62
2023/07/13 00:18:35;;;;;;;1.67;1.20;;;25.10;51.30;;;;;;4997459;28;20480;-66
2023/07/13 00:21:05;;;;;;;1.42;0.82;;;25.10;51.20;;;;;;5017934;28;20144;-66
2023/07/13 00:23:35;;;;;;;1.30;1.08;;;25.10;51.20;;;;;;4999406;28;20026;-66
2023/07/13 00:26:02;;;;;;;1.42;0.93;;;25.10;51.30;;;;;;5004937;28;20366;-65
2023/07/13 00:28:27;;;;;;;1.88;1.10;;;25.10;51.40;;;;;;4997017;28;20469;-64
2023/07/13 00:30:54;;;;;;;2.72;1.25;;;25.10;51.60;;;;;;4994856;28;20362;-65
2023/07/13 00:33:19;;;;;;;2.70;1.30;;;25.10;51.60;;;;;;5003424;28;20458;-66
2023/07/13 00:35:45;;;;;;;1.80;1.00;;;25.10;51.60;;;;;;5003124;28;20053;-67
2023/07/13 00:38:10;;;;;;;2.53;0.98;;;25.10;51.60;;;;;;4992563;28;20496;-63
2023/07/13 00:40:36;;;;;;;2.45;1.13;;;25.10;51.70;;;;;;5002893;28;20481;-65
2023/07/13 00:43:02;;;;;;;2.92;1.30;;;25.10;51.70;;;;;;4995640;28;20030;-62
2023/07/13 00:45:27;;;;;;;2.97;1.10;;;25.10;51.70;;;;;;5003486;28;20053;-63
2023/07/13 00:47:54;;;;;;;2.45;1.08;;;25.10;51.80;;;;;;5001532;28;20088;-66
2023/07/13 00:50:21;;;;;;;2.08;1.00;;;25.10;52.00;;;;;;4999320;28;20046;-66
2023/07/13 00:52:51;;;;;;;4.55;1.20;;;25.10;52.10;;;;;;5001737;28;20084;-66
2023/07/13 00:55:17;;;;;;;2.40;1.05;;;25.00;52.00;;;;;;4986684;28;20543;-66
2023/07/13 00:57:44;;;;;;;2.70;0.90;;;25.10;52.30;;;;;;4999514;28;20043;-66
2023/07/13 01:00:11;;;;;;;2.83;1.13;;;25.10;52.30;;;;;;4999577;28;20057;-66
2023/07/13 01:02:39;;;;;;;2.67;1.20;;;25.00;52.30;;;;;;4999541;28;20030;-65
2023/07/13 01:05:10;;;;;;;1.65;1.13;;;25.00;52.20;;;;;;5000390;28;20503;-63
2023/07/13 01:07:36;;;;;;;1.70;1.10;;;25.00;52.40;;;;;;5000488;28;20056;-67
2023/07/13 01:10:02;;;;;;;2.00;1.00;;;25.00;52.50;;;;;;4990415;28;20598;-66
2023/07/13 01:12:27;;;;;;;3.00;1.17;;;25.00;52.50;;;;;;5003199;28;20022;-64
2023/07/13 01:15:00;;;;;;;3.05;1.25;;;25.00;52.60;;;;;;5003469;28;20018;-66
2023/07/13 01:17:28;;;;;;;2.92;1.20;;;25.00;52.70;;;;;;4998438;28;20497;-61
2023/07/13 01:19:53;;;;;;;1.92;1.42;;;25.00;52.80;;;;;;4995708;28;20026;-66
2023/07/13 01:22:25;;;;;;;3.28;1.10;;;24.90;52.70;;;;;;5006219;28;20586;-63
2023/07/13 01:24:50;;;;;;;2.25;1.33;;;25.00;52.80;;;;;;4991396;28;20041;-64
2023/07/13 01:27:24;;;;;;;1.88;1.10;;;25.00;52.90;;;;;;4994634;28;20031;-66
2023/07/13 01:29:51;;;;;;;2.10;1.08;;;25.00;53.00;;;;;;4994711;28;20057;-64
2023/07/13 01:32:24;;;;;;;1.50;1.17;;;25.00;53.00;;;;;;5003104;28;20030;-66
2023/07/13 01:34:56;;;;;;;1.92;1.20;;;24.90;53.00;;;;;;5001153;28;20511;-66
2023/07/13 01:37:24;;;;;;;1.65;0.80;;;24.90;53.00;;;;;;4990424;28;20405;-66
2023/07/13 01:39:49;;;;;;;2.85;1.10;;;24.90;52.90;;;;;;5001318;28;20041;-66
2023/07/13 01:42:15;;;;;;;2.20;1.25;;;24.90;53.10;;;;;;5000917;28;20053;-65
2023/07/13 01:44:41;;;;;;;2.15;1.38;;;24.90;53.10;;;;;;4995822;28;20030;-63
2023/07/13 01:47:06;;;;;;;1.75;1.13;;;24.90;53.20;;;;;;5000142;28;20070;-63
2023/07/13 01:49:32;;;;;;;2.67;1.40;;;24.90;53.20;;;;;;4996035;28;20068;-66
2023/07/13 01:51:57;;;;;;;1.50;1.05;;;24.90;53.20;;;;;;4991565;28;20027;-67
2023/07/13 01:54:23;;;;;;;1.10;1.00;;;24.90;53.20;;;;;;4997079;28;20106;-62
2023/07/13 01:56:49;;;;;;;2.22;1.42;;;24.90;53.30;;;;;;4988515;28;20022;-66
2023/07/13 01:59:14;;;;;;;3.08;1.27;;;24.90;53.40;;;;;;4994007;28;20255;-66
2023/07/13 02:01:40;;;;;;;1.85;1.08;;;24.90;53.50;;;;;;4990286;28;20085;-63
2023/07/13 02:04:05;;;;;;;1.48;1.33;;;24.90;53.60;;;;;;4993507;28;20031;-64
2023/07/13 02:06:30;;;;;;;1.40;1.02;;;24.90;53.70;;;;;;4993807;28;20117;-63
2023/07/13 02:08:57;;;;;;;2.10;1.10;;;24.90;53.70;;;;;;5000934;28;20502;-66
2023/07/13 02:11:22;;;;;;;2.15;1.15;;;24.90;53.80;;;;;;5001702;28;20107;-63
2023/07/13 02:13:48;;;;;;;1.95;1.10;;;24.90;53.80;;;;;;5003759;28;20081;-64
2023/07/13 02:16:14;;;;;;;1.15;1.05;;;24.90;53.80;;;;;;5000642;28;20125;-66
2023/07/13 02:18:39;;;;;;;3.30;1.15;;;24.80;53.80;;;;;;4996440;28;20035;-65
2023/07/13 02:21:05;;;;;;;1.88;1.40;;;24.90;53.90;;;;;;4998813;28;20463;-66
2023/07/13 02:23:30;;;;;;;1.45;1.10;;;24.80;53.90;;;;;;4999607;28;20037;-66
2023/07/13 02:25:57;;;;;;;1.60;1.27;;;24.80;54.00;;;;;;4999910;28;20026;-66
2023/07/13 02:28:23;;;;;;;3.00;1.40;;;24.80;53.90;;;;;;5004501;28;20117;-63
2023/07/13 02:30:48;;;;;;;1.88;1.10;;;24.80;53.90;;;;;;4993716;28;20133;-62
2023/07/13 02:33:14;;;;;;;2.40;1.20;;;24.80;54.00;;;;;;4998264;28;20038;-64
2023/07/13 02:35:39;;;;;;;1.83;1.40;;;24.70;53.90;;;;;;5003709;28;20038;-66
2023/07/13 02:38:05;;;;;;;2.75;1.10;;;24.80;54.00;;;;;;4996870;28;20034;-62
2023/07/13 02:40:33;;;;;;;2.05;1.20;;;24.70;54.00;;;;;;5001049;28;20037;-61
2023/07/13 02:42:59;;;;;;;1.75;1.38;;;24.70;54.00;;;;;;5003051;28;20033;-66
2023/07/13 02:45:25;;;;;;;1.77;1.20;;;24.70;54.10;;;;;;4992847;28;20041;-64
2023/07/13 02:47:50;;;;;;;2.13;1.40;;;24.80;54.20;;;;;;5003590;28;20034;-64
2023/07/13 02:50:16;;;;;;;2.95;1.20;;;24.70;54.20;;;;;;4996728;28;20030;-66
2023/07/13 02:52:42;;;;;;;1.80;1.30;;;24.70;54.30;;;;;;4999226;28;20068;-60
2023/07/13 02:55:07;;;;;;;2.33;1.20;;;24.70;54.40;;;;;;4996873;28;20037;-66
2023/07/13 02:57:33;;;;;;;1.33;1.23;;;24.70;54.40;;;;;;4991186;28;20034;-63
2023/07/13 02:59:59;;;;;;;2.25;1.40;;;24.70;54.20;;;;;;4993757;28;20057;-65
2023/07/13 03:02:27;;;;;;;1.55;1.10;;;24.70;54.30;;;;;;4995870;28;20038;-66
2023/07/13 03:04:54;;;;;;;1.90;1.15;;;24.70;54.40;;;;;;4993502;28;20022;-64
2023/07/13 03:07:20;;;;;;;3.30;1.40;;;24.70;54.40;;;;;;5000162;28;20100;-66
2023/07/13 03:09:45;;;;;;;1.27;1.17;;;24.70;54.60;;;;;;5001051;28;20053;-62
2023/07/13 03:12:10;;;;;;;1.60;1.23;;;24.70;54.60;;;;;;5001796;28;20061;-66
2023/07/13 03:14:36;;;;;;;2.00;1.50;;;24.70;54.70;;;;;;5000324;28;20109;-66
2023/07/13 03:17:02;;;;;;;1.52;1.17;;;24.70;54.70;;;;;;4993524;28;20034;-63
2023/07/13 03:19:27;;;;;;;1.17;1.08;;;24.70;54.70;;;;;;5003961;28;20284;-63
2023/07/13 03:21:53;;;;;;;2.20;1.33;;;24.70;54.70;;;;;;5004600;28;20022;-66
2023/07/13 03:24:19;;;;;;;1.55;1.05;;;24.60;54.80;;;;;;4995833;28;20033;-64
2023/07/13 03:26:44;;;;;;;2.05;1.20;;;24.60;54.90;;;;;;5003817;28;20064;-66
2023/07/13 03:29:10;;;;;;;1.83;1.60;;;24.70;54.90;;;;;;4993068;28;20535;-66
2023/07/13 03:31:36;;;;;;;2.30;1.60;;;24.70;54.90;;;;;;4997928;28;20038;-65
2023/07/13 03:34:02;;;;;;;1.95;1.58;;;24.60;54.80;;;;;;5004205;28;20026;-66
2023/07/13 03:36:29;;;;;;;2.03;1.20;;;24.70;55.00;;;;;;4999860;28;20121;-64
2023/07/13 03:38:58;;;;;;;2.53;1.40;;;24.60;55.00;;;;;;5003164;28;20029;-66
2023/07/13 03:41:24;;;;;;;5.78;1.73;;;24.60;55.00;;;;;;5000083;28;20032;-65
2023/07/13 03:43:50;;;;;;;1.35;1.20;;;24.60;55.10;;;;;;4997928;28;20040;-66
2023/07/13 03:46:17;;;;;;;3.83;1.55;;;24.60;55.20;;;;;;4983081;23;20054;-61
2023/07/13 03:48:44;;;;;;;3.60;1.60;;;24.70;55.40;;;;;;4962135;28;20062;-61
2023/07/13 03:51:13;;;;;;;2.17;1.52;;;24.60;55.50;;;;;;4957896;28;20031;-61
2023/07/13 03:53:39;;;;;;;2.65;1.10;;;24.60;55.60;;;;;;4961154;28;20035;-60
2023/07/13 03:56:05;;;;;;;1.50;1.40;;;24.60;55.90;;;;;;4966054;28;20153;-59
2023/07/13 03:58:41;;;;;;;3.63;1.48;;;24.60;56.20;;;;;;4961192;28;20125;-59
2023/07/13 04:01:09;;;;;;;3.38;1.60;;;24.60;56.30;;;;;;4964275;28;20089;-60
2023/07/13 04:03:35;;;;;;;1.52;1.20;;;24.60;56.30;;;;;;4961475;28;20129;-59
2023/07/13 04:06:03;;;;;;;2.10;1.38;;;24.50;56.50;;;;;;4961110;28;20127;-59
2023/07/13 04:08:31;;;;;;;4.78;1.52;;;24.60;56.60;;;;;;4952211;28;20054;-60
2023/07/13 04:10:57;;;;;;;2.95;1.42;;;24.60;56.80;;;;;;4961458;28;20511;-60
2023/07/13 04:13:23;;;;;;;1.80;1.70;;;24.50;56.80;;;;;;4961459;28;20093;-60
2023/07/13 04:15:49;;;;;;;2.28;1.40;;;24.50;56.80;;;;;;4956276;28;20034;-60
2023/07/13 04:18:14;;;;;;;2.75;1.40;;;24.50;56.80;;;;;;4979857;28;20031;-60
2023/07/13 04:20:40;;;;;;;2.80;1.35;;;24.50;56.80;;;;;;4955749;28;20034;-60
2023/07/13 04:23:05;;;;;;;2.45;1.33;;;24.50;56.90;;;;;;4959546;28;20030;-60
2023/07/13 04:25:31;;;;;;;2.35;1.52;;;24.50;57.00;;;;;;4960221;28;20050;-60
2023/07/13 04:27:56;;;;;;;2.50;1.48;;;24.50;57.00;;;;;;4964709;28;20031;-60
2023/07/13 04:30:22;;;;;;;1.98;1.27;;;24.50;57.10;;;;;;4966897;28;20098;-60
2023/07/13 04:32:49;;;;;;;2.70;1.40;;;24.50;57.10;;;;;;4964879;28;20026;-60
2023/07/13 04:35:15;;;;;;;1.55;1.38;;;24.50;57.20;;;;;;4959705;28;20138;-60
2023/07/13 04:37:41;;;;;;;2.63;1.90;;;24.50;57.20;;;;;;4962123;28;20117;-62
2023/07/13 04:40:11;;;;;;;2.15;1.55;;;24.50;57.30;;;;;;4960462;28;20032;-60
2023/07/13 04:42:36;;;;;;;4.82;1.58;;;24.50;57.40;;;;;;4960037;28;20027;-61
2023/07/13 04:45:02;;;;;;;2.55;1.30;;;24.50;57.40;;;;;;4964650;28;20516;-61
2023/07/13 04:47:30;;;;;;;2.15;1.20;;;24.50;57.10;;;;;;4959691;28;20023;-61
2023/07/13 04:49:56;;;;;;;2.40;1.50;;;24.50;57.30;;;;;;4965084;28;20030;-57
2023/07/13 04:52:22;;;;;;;1.88;1.35;;;24.50;57.20;;;;;;4955574;28;20020;-60
2023/07/13 04:54:47;;;;;;;1.60;1.13;;;24.50;57.10;;;;;;4957658;28;20374;-60
2023/07/13 04:57:12;;;;;;;1.92;1.60;;;24.60;57.00;;;;;;4964101;28;20118;-61
2023/07/13 04:59:38;;;;;;;2.75;1.42;;;24.60;57.10;;;;;;4955039;28;20116;-61
2023/07/13 05:02:04;;;;;;;2.60;1.55;;;24.60;57.10;;;;;;4960147;28;20031;-61
2023/07/13 05:04:30;;;;;;;3.78;1.48;;;24.60;57.30;;;;;;4959141;28;20475;-61
2023/07/13 05:06:55;;;;;;;2.08;1.42;;;24.50;57.30;;;;;;4956569;28;20031;-61
2023/07/13 05:09:21;;;;;;;1.40;1.20;;;24.50;57.30;;;;;;4959247;28;20035;-60
2023/07/13 05:11:46;;;;;;;3.20;1.45;;;24.50;57.30;;;;;;4960025;28;20118;-60
2023/07/13 05:14:12;;;;;;;3.22;1.60;;;24.50;57.40;;;;;;4957040;28;20078;-61
2023/07/13 05:16:37;;;;;;;2.20;1.85;;;24.50;57.40;;;;;;4952685;28;20411;-60
2023/07/13 05:19:03;;;;;;;1.98;1.40;;;24.50;57.30;;;;;;4958743;28;20030;-60
2023/07/13 05:21:28;;;;;;;1.70;1.48;;;24.50;57.10;;;;;;4958479;28;20062;-61
2023/07/13 05:23:54;;;;;;;1.45;1.27;;;24.60;57.30;;;;;;4959711;28;20037;-61
2023/07/13 05:26:20;;;;;;;1.95;1.52;;;24.60;56.90;;;;;;4958387;28;20039;-60
2023/07/13 05:28:46;;;;;;;3.10;1.33;;;24.60;56.80;;;;;;4956441;28;20047;-61
2023/07/13 05:31:12;;;;;;;2.45;1.55;;;24.60;56.60;;;;;;4961259;28;20022;-61
2023/07/13 05:33:38;;;;;;;1.92;1.40;;;24.60;56.40;;;;;;4962752;28;20035;-61
2023/07/13 05:36:04;;;;;;;1.70;1.27;;;24.70;56.40;;;;;;4955223;28;20618;-61
2023/07/13 05:38:29;;;;;;;1.73;1.30;;;24.70;56.30;;;;;;4964042;28;20051;-61
2023/07/13 05:40:56;;;;;;;3.35;1.55;;;24.70;56.00;;;;;;4960692;28;20061;-61
2023/07/13 05:43:22;;;;;;;1.98;1.30;;;24.70;55.90;;;;;;4959453;28;20028;-61
2023/07/13 05:45:48;;;;;;;3.80;1.33;;;24.70;55.80;;;;;;4958076;28;20527;-58
2023/07/13 05:48:14;;;;;;;2.05;1.00;;;24.70;55.60;;;;;;4960214;28;20046;-60
2023/07/13 05:50:40;;;;;;;3.17;1.38;;;24.70;55.60;;;;;;4961211;28;20050;-60
2023/07/13 05:53:06;;;;;;;3.53;1.40;;;24.70;55.50;;;;;;4962562;28;20031;-60
2023/07/13 05:55:31;;;;;;;3.15;1.40;;;24.70;55.50;;;;;;4965828;28;20049;-60
2023/07/13 05:57:58;;;;;;;3.90;1.40;;;24.60;55.50;;;;;;4982304;28;20038;-61
2023/07/13 06:00:24;;;;;;;2.65;1.40;;;24.60;55.50;;;;;;4963583;28;20031;-60
2023/07/13 06:02:50;;;;;;;2.08;1.40;;;24.60;55.30;;;;;;4960912;28;20113;-60
2023/07/13 06:05:16;;;;;;;1.35;1.25;;;24.60;55.30;;;;;;4957817;28;20300;-60
2023/07/13 06:07:41;;;;;;;3.30;1.40;;;24.60;55.30;;;;;;4959507;28;20033;-61
2023/07/13 06:10:07;;;;;;;3.47;1.63;;;24.60;55.40;;;;;;4958022;28;20028;-61
2023/07/13 06:12:33;;;;;;;2.35;1.30;;;24.60;55.40;;;;;;4962771;28;20034;-61
2023/07/13 06:14:58;;;;;;;2.95;1.80;;;24.60;55.40;;;;;;4962506;28;20029;-60
2023/07/13 06:17:24;;;;;;;1.90;1.50;;;24.60;55.40;;;;;;4963089;28;20027;-60
2023/07/13 06:19:49;;;;;;;3.92;1.50;;;24.60;55.50;;;;;;4955360;28;20434;-61
2023/07/13 06:22:15;;;;;;;2.40;1.30;;;24.50;55.50;;;;;;4961358;28;20039;-60
2023/07/13 06:24:40;;;;;;;2.63;1.77;;;24.50;55.40;;;;;;4954902;28;20030;-61
2023/07/13 06:27:06;;;;;;;2.92;1.50;;;24.60;55.30;;;;;;4952711;28;20023;-61
2023/07/13 06:29:31;;;;;;;1.85;1.20;;;24.50;55.10;;;;;;4953487;28;20416;-61
2023/07/13 06:31:57;;;;;;;2.78;1.50;;;24.50;55.10;;;;;;4957963;28;20485;-58
2023/07/13 06:34:22;;;;;;;1.77;1.10;;;24.50;55.20;;;;;;4959419;28;20488;-58
2023/07/13 06:36:48;;;;;;;2.30;1.42;;;24.50;55.20;;;;;;4957961;28;20581;-60
2023/07/13 06:39:14;;;;;;;2.67;1.40;;;24.50;55.20;;;;;;4975633;28;20062;-60
2023/07/13 06:41:39;;;;;;;2.90;1.35;;;24.50;55.20;;;;;;4960870;28;20142;-59
2023/07/13 06:44:06;;;;;;;2.50;1.50;;;24.50;55.20;;;;;;4960793;28;20042;-59
2023/07/13 06:46:31;;;;;;;4.25;1.85;;;24.50;55.10;;;;;;4959039;28;20130;-60
2023/07/13 06:48:57;;;;;;;2.97;1.20;;;24.50;55.00;;;;;;4960809;28;20122;-59
2023/07/13 06:51:22;;;;;;;4.60;1.67;;;24.60;55.00;;;;;;4960889;28;20038;-60
2023/07/13 06:53:49;;;;;;;1.95;1.42;;;24.60;54.90;;;;;;4966536;28;20026;-60
2023/07/13 06:56:15;;;;;;;2.85;1.33;;;24.60;54.90;;;;;;4960118;28;20023;-61
2023/07/13 06:58:41;;;;;;;5.38;1.42;;;24.60;55.10;;;;;;4959331;28;20042;-60
2023/07/13 07:01:06;;;;;;;3.42;1.25;;;24.60;54.90;;;;;;4961859;28;20732;-60
2023/07/13 07:03:32;;;;;;;3.55;1.58;;;24.60;54.90;;;;;;4957791;28;20682;-60
2023/07/13 07:06:15;;;;;;;1.60;1.20;;;24.60;54.90;;;;;;4961511;28;20045;-60
2023/07/13 07:08:41;;;;;;;3.35;1.40;;;24.60;54.90;;;;;;4981009;28;20039;-59
2023/07/13 07:11:12;;;;;;;1.50;1.08;;;24.60;54.80;;;;;;4961074;28;20473;-60
2023/07/13 07:13:37;;;;;;;2.70;1.15;;;24.60;54.80;;;;;;4973430;28;20537;-60
2023/07/13 07:16:03;;;;;;;1.73;1.10;;;24.60;54.90;;;;;;4961408;28;20135;-59
2023/07/13 07:18:28;;;;;;;3.15;1.17;;;24.60;55.00;;;;;;4960858;28;20091;-59
2023/07/13 07:20:54;;;;;;;2.10;1.10;;;24.60;54.90;;;;;;4956750;28;20043;-60
2023/07/13 07:23:19;;;;;;;2.85;1.10;;;24.60;54.90;;;;;;4962937;28;20031;-60
2023/07/13 07:25:45;;;;;;;4.15;1.55;;;24.60;55.00;;;;;;4949514;28;20034;-60
2023/07/13 07:28:17;;;;;;;3.05;1.63;;;24.60;54.80;;;;;;4961350;28;20046;-60
2023/07/13 07:30:44;;;;;;;2.83;1.48;;;24.50;54.50;;;;;;4956751;28;20105;-59
2023/07/13 07:33:09;;;;;;;3.53;1.50;;;24.50;53.90;;;;;;4954252;28;20035;-59
2023/07/13 07:35:35;;;;;;;2.60;1.35;;;24.50;53.70;;;;;;4958366;28;20032;-60
2023/07/13 07:38:01;;;;;;;2.50;1.35;;;24.50;53.40;;;;;;4958658;28;20030;-60
2023/07/13 07:40:26;;;;;;;2.10;1.15;;;24.50;53.60;;;;;;4951521;28;20050;-60
2023/07/13 07:42:52;;;;;;;4.55;2.30;;;24.50;53.60;;;;;;4958149;28;20379;-60
2023/07/13 07:45:19;;;;;;;4.00;1.25;;;24.50;53.60;;;;;;4965902;28;20472;-59
2023/07/13 07:47:44;;;;;;;2.53;1.55;;;24.50;53.60;;;;;;4956865;28;20332;-60
2023/07/13 07:50:10;;;;;;;2.25;1.30;;;24.50;53.40;;;;;;4960262;28;20525;-60
2023/07/13 07:52:36;;;;;;;4.63;1.50;;;24.50;53.40;;;;;;4955675;28;20028;-60
2023/07/13 07:55:04;;;;;;;2.92;1.50;;;24.50;53.50;;;;;;4960535;28;20061;-60
2023/07/13 07:57:29;;;;;;;3.35;1.55;;;24.50;53.50;;;;;;4948265;28;20031;-60
2023/07/13 07:59:55;;;;;;;1.45;1.10;;;24.50;53.40;;;;;;4958923;28;20034;-59
2023/07/13 08:02:20;;;;;;;2.15;1.00;;;24.50;53.70;;;;;;4980970;28;20400;-60
2023/07/13 08:04:46;;;;;;;2.15;1.20;;;24.50;54.20;;;;;;4959968;28;20026;-60
2023/07/13 08:07:11;;;;;;;2.40;1.35;;;24.50;53.90;;;;;;4953578;28;20542;-60
2023/07/13 08:09:37;;;;;;;2.92;1.75;;;24.50;53.80;;;;;;4964201;28;20093;-59
2023/07/13 08:12:02;;;;;;;2.72;1.23;;;24.50;53.60;;;;;;4960280;28;20114;-60
2023/07/13 08:14:28;;;;;;;2.40;1.52;;;24.50;53.30;;;;;;4955201;28;20452;-60
2023/07/13 08:16:53;;;;;;;5.35;2.08;;;24.40;53.10;;;;;;4955081;28;20106;-60
2023/07/13 08:19:19;;;;;;;4.75;1.55;;;24.50;52.80;;;;;;4961137;28;20105;-59
2023/07/13 08:21:44;;;;;;;2.17;1.27;;;24.40;52.80;;;;;;4963324;28;20547;-60
2023/07/13 08:24:10;;;;;;;2.60;1.30;;;24.50;52.70;;;;;;4965429;28;20035;-60
2023/07/13 08:26:36;;;;;;;2.60;1.58;;;24.50;52.70;;;;;;4964578;28;20046;-60
2023/07/13 08:29:02;;;;;;;2.33;1.50;;;24.50;53.20;;;;;;4963263;28;20039;-60
2023/07/13 08:31:27;;;;;;;1.83;1.20;;;24.50;52.90;;;;;;4964881;28;20519;-56
2023/07/13 08:33:53;;;;;;;2.17;1.55;;;24.50;52.90;;;;;;4966758;28;20058;-60
2023/07/13 08:36:18;;;;;;;2.20;1.48;;;24.50;52.60;;;;;;4965671;28;20038;-60
2023/07/13 08:38:44;;;;;;;6.07;1.95;;;24.50;52.70;;;;;;4964858;28;20037;-59
2023/07/13 08:41:16;;;;;;;4.35;1.60;;;24.50;52.80;;;;;;4965759;28;20066;-60
2023/07/13 08:43:48;;;;;;;3.38;1.77;;;24.50;53.80;;;;;;4964264;28;20089;-60
2023/07/13 08:46:34;;;;;;;4.30;1.67;;;24.40;52.40;;;;;;4965145;28;20039;-59
2023/07/13 08:49:06;;;;;;;4.80;1.63;;;24.40;52.00;;;;;;4962257;28;20141;-59
2023/07/13 08:51:53;;;;;;;2.75;1.45;;;24.50;52.20;;;;;;4968792;28;20038;-60
2023/07/13 08:54:32;;;;;;;3.53;1.55;;;24.50;52.60;;;;;;4965651;28;20042;-59
2023/07/13 08:57:02;;;;;;;2.35;1.40;;;24.50;52.40;;;;;;4948295;28;20089;-59
2023/07/13 08:59:31;;;;;;;3.90;1.77;;;24.50;53.10;;;;;;4971262;28;20034;-59
2023/07/13 09:02:22;;;;;;;1.90;1.52;;;24.50;52.70;;;;;;4957606;28;20034;-60
2023/07/13 09:04:54;;;;;;;2.90;1.50;;;24.50;52.30;;;;;;4963771;28;20070;-60
2023/07/13 09:07:20;;;;;;;1.77;1.33;;;24.50;52.10;;;;;;4964288;28;20097;-60
2023/07/13 09:10:00;;;;;;;4.38;1.70;;;24.50;52.00;;;;;;4966939;28;20046;-60
2023/07/13 09:12:49;;;;;;;2.13;1.40;;;24.50;52.10;;;;;;4964423;28;20049;-60
2023/07/13 09:15:32;;;;;;;4.40;1.58;;;24.50;52.20;;;;;;4962805;28;20037;-60
2023/07/13 09:18:11;;;;;;;5.22;2.10;;;24.50;52.20;;;;;;4964585;28;20114;-60
2023/07/13 09:20:49;;;;;;;2.53;1.42;;;24.60;52.40;;;;;;4963315;28;20035;-60
2023/07/13 09:23:19;;;;;;;2.20;1.35;;;24.50;52.40;;;;;;4964576;28;20427;-59
2023/07/13 09:25:50;;;;;;;2.53;1.05;;;24.50;52.50;;;;;;4963839;28;20038;-60
2023/07/13 09:28:23;;;;;;;4.15;1.48;;;24.50;52.70;;;;;;4964498;28;20034;-60
2023/07/13 09:31:03;;;;;;;2.35;1.65;;;24.50;52.50;;;;;;4965366;28;20504;-60
2023/07/13 09:33:30;;;;;;;3.20;1.38;;;24.50;53.20;;;;;;4965266;28;20026;-60
2023/07/13 09:35:58;;;;;;;4.93;1.55;;;24.50;52.60;;;;;;4966539;28;20035;-60
2023/07/13 09:38:25;;;;;;;2.30;1.42;;;24.40;52.60;;;;;;4965561;28;20049;-60
2023/07/13 09:41:28;;;;;;;4.78;2.00;;;24.50;52.50;;;;;;4964118;28;20055;-60
2023/07/13 09:44:11;;;;;;;4.30;1.70;;;24.40;52.50;;;;;;4964480;28;20114;-60
2023/07/13 09:46:38;;;;;;;3.92;1.60;;;24.40;52.50;;;;;;4962726;28;20569;-60
2023/07/13 09:49:04;;;;;;;1.98;1.35;;;24.40;52.40;;;;;;4965310;28;20035;-60
2023/07/13 09:51:29;;;;;;;3.97;1.33;;;24.40;52.40;;;;;;4965112;28;20042;-60
2023/07/13 09:53:55;;;;;;;2.63;1.40;;;24.40;52.30;;;;;;4963434;28;20078;-60
2023/07/13 09:56:22;;;;;;;3.92;1.60;;;24.40;52.40;;;;;;4968521;28;20069;-60
2023/07/13 09:58:48;;;;;;;2.08;1.40;;;24.40;52.00;;;;;;4959924;28;20035;-60
2023/07/13 10:01:15;;;;;;;7.90;2.65;;;24.40;51.60;;;;;;4964006;28;20040;-61
2023/07/13 10:03:53;;;;;;;2.05;1.13;;;24.40;51.50;;;;;;4961600;28;20035;-60
2023/07/13 10:06:21;;;;;;;2.95;1.58;;;24.40;51.10;;;;;;4963343;28;20089;-60
2023/07/13 10:08:49;;;;;;;4.38;1.98;;;24.40;51.00;;;;;;4962349;28;20043;-60
2023/07/13 10:11:29;;;;;;;2.53;1.42;;;24.40;51.40;;;;;;4968637;28;20037;-60
2023/07/13 10:14:20;;;;;;;4.28;1.75;;;24.40;51.50;;;;;;4955747;28;20090;-60
2023/07/13 10:16:47;;;;;;;2.88;1.33;;;24.40;51.60;;;;;;4960024;28;20046;-60
2023/07/13 10:19:21;;;;;;;1.77;1.30;;;24.50;52.00;;;;;;4961695;28;20042;-60
2023/07/13 10:21:59;;;;;;;3.60;1.42;;;24.50;52.10;;;;;;4961213;28;20093;-60
2023/07/13 10:24:37;;;;;;;3.15;1.60;;;24.50;52.60;;;;;;4963334;28;20717;-60
2023/07/13 10:27:35;;;;;;;3.05;1.08;;;24.50;52.30;;;;;;4962743;28;20735;-60
2023/07/13 10:30:15;;;;;;;3.05;1.67;;;24.40;51.80;;;;;;4961882;28;20038;-59
2023/07/13 10:32:41;;;;;;;4.28;1.30;;;24.50;51.60;;;;;;4959663;28;20066;-60
2023/07/13 10:35:12;;;;;;;1.77;1.23;;;24.50;51.70;;;;;;4965274;28;20019;-60
2023/07/13 10:37:50;;;;;;;2.28;1.23;;;24.40;51.80;;;;;;4966872;28;20031;-60
2023/07/13 10:40:24;;;;;;;3.10;1.20;;;24.50;51.90;;;;;;4962217;28;20026;-60
2023/07/13 10:42:52;;;;;;;3.03;1.45;;;24.50;52.00;;;;;;4964782;28;20038;-60
2023/07/13 10:45:21;;;;;;;3.05;1.27;;;24.50;52.10;;;;;;4965242;28;20039;-60
2023/07/13 10:47:49;;;;;;;2.47;1.65;;;24.50;52.20;;;;;;4966094;28;20054;-60
2023/07/13 10:50:40;;;;;;;1.58;1.10;;;24.50;51.80;;;;;;4967169;28;20023;-60
2023/07/13 10:53:21;;;;;;;1.67;1.20;;;24.50;51.90;;;;;;4963408;28;20030;-60
2023/07/13 10:56:24;;;;;;;1.35;1.17;;;24.50;52.30;;;;;;4965778;28;20027;-60
2023/07/13 10:59:16;;;;;;;2.75;1.40;;;24.50;52.50;;;;;;4961215;28;20105;-61
2023/07/13 11:01:54;;;;;;;1.40;0.98;;;24.50;53.00;;;;;;4964604;28;20054;-60
2023/07/13 11:04:20;;;;;;;3.17;1.35;;;24.40;51.60;;;;;;4961557;28;20023;-60
2023/07/13 11:06:49;;;;;;;2.80;1.30;;;24.40;51.50;;;;;;4969556;28;20495;-60
2023/07/13 11:09:30;;;;;;;2.15;1.35;;;24.40;51.90;;;;;;4965674;28;20523;-62
2023/07/13 11:11:59;;;;;;;1.60;1.30;;;24.50;51.70;;;;;;4964184;28;20035;-60
2023/07/13 11:15:06;;;;;;;2.17;1.50;;;24.40;51.70;;;;;;4965761;28;20038;-61
2023/07/13 11:18:00;;;;;;;2.55;1.35;;;24.40;51.40;;;;;;4952003;28;20227;-59
2023/07/13 11:20:32;;;;;;;4.55;1.60;;;24.50;51.50;;;;;;4960644;28;20045;-61
2023/07/13 11:23:13;;;;;;;2.63;1.42;;;24.50;51.20;;;;;;4965610;28;20118;-59
2023/07/13 11:25:39;;;;;;;3.05;1.10;;;24.50;51.00;;;;;;4965536;28;20450;-60
2023/07/13 11:28:17;;;;;;;2.63;1.42;;;24.50;50.90;;;;;;4964334;28;20522;-60
2023/07/13 11:30:47;;;;;;;2.33;1.48;;;24.50;50.90;;;;;;4962299;28;20038;-60
2023/07/13 11:33:17;;;;;;;1.42;1.30;;;24.50;51.10;;;;;;4961455;28;20551;-60
2023/07/13 11:36:04;;;;;;;3.10;1.40;;;24.40;51.60;;;;;;4963554;28;20046;-60
2023/07/13 11:38:32;;;;;;;2.38;1.30;;;24.50;51.10;;;;;;4962039;28;20039;-61
2023/07/13 11:41:03;;;;;;;2.75;1.70;;;24.40;51.30;;;;;;4963696;28;20031;-60
2023/07/13 11:43:29;;;;;;;4.05;1.70;;;24.40;51.40;;;;;;4963567;28;20063;-60
2023/07/13 11:45:55;;;;;;;4.65;1.98;;;24.50;51.60;;;;;;4960174;28;20039;-61
2023/07/13 11:48:22;;;;;;;3.88;1.30;;;24.50;51.70;;;;;;4963258;28;20046;-60
2023/07/13 11:50:54;;;;;;;2.63;1.10;;;24.50;51.90;;;;;;4960464;28;20444;-60
2023/07/13 11:53:20;;;;;;;3.30;1.33;;;24.50;52.10;;;;;;4959141;28;20042;-60
2023/07/13 11:55:46;;;;;;;2.65;1.83;;;24.50;52.10;;;;;;4960954;28;20031;-60
2023/07/13 11:58:23;;;;;;;1.75;1.20;;;24.50;51.70;;;;;;4962537;28;20027;-60
2023/07/13 12:00:50;;;;;;;1.88;1.15;;;24.50;51.80;;;;;;4960309;28;20035;-60
2023/07/13 12:03:20;;;;;;;2.58;1.40;;;24.50;51.70;;;;;;4962023;28;20031;-60
2023/07/13 12:06:00;;;;;;;3.25;1.10;;;24.50;51.80;;;;;;4962443;28;20035;-60
2023/07/13 12:08:26;;;;;;;4.03;2.13;;;24.50;51.90;;;;;;4956896;28;20051;-61
2023/07/13 12:11:05;;;;;;;2.40;1.48;;;24.50;51.80;;;;;;4961877;28;20189;-60
2023/07/13 12:13:37;;;;;;;3.90;1.90;;;24.50;51.30;;;;;;4964497;28;20035;-59
2023/07/13 12:16:13;;;;;;;5.38;2.10;;;24.50;51.00;;;;;;4959472;28;20121;-59
2023/07/13 12:18:39;;;;;;;3.08;1.63;;;24.50;50.80;;;;;;4963198;28;20031;-60
2023/07/13 12:21:07;;;;;;;2.65;1.20;;;24.50;51.00;;;;;;4960798;28;20054;-60
2023/07/13 12:23:35;;;;;;;1.88;1.25;;;24.50;50.90;;;;;;4958277;28;20041;-59
2023/07/13 12:26:06;;;;;;;2.03;1.63;;;24.50;51.30;;;;;;4963069;28;20118;-60
2023/07/13 12:28:36;;;;;;;3.17;1.48;;;24.50;51.40;;;;;;4961761;28;20050;-60
2023/07/13 12:31:06;;;;;;;3.88;1.65;;;24.50;51.90;;;;;;4961566;28;20031;-60
2023/07/13 12:33:33;;;;;;;2.88;1.10;;;24.50;51.90;;;;;;4962195;28;20121;-59
2023/07/13 12:36:02;;;;;;;2.42;1.65;;;24.50;52.10;;;;;;4959832;28;20035;-60
2023/07/13 12:38:29;;;;;;;3.13;1.63;;;24.50;52.00;;;;;;4950584;28;20404;-60
2023/07/13 12:40:55;;;;;;;4.00;1.85;;;24.50;52.10;;;;;;4958783;28;20175;-60
2023/07/13 12:43:22;;;;;;;2.47;1.20;;;24.60;51.90;;;;;;4961900;28;20113;-59
2023/07/13 12:45:58;;;;;;;2.17;1.30;;;24.60;51.20;;;;;;4964096;28;20047;-59
2023/07/13 12:48:24;;;;;;;3.08;1.45;;;24.50;51.00;;;;;;4960523;28;20035;-60
2023/07/13 12:50:52;;;;;;;2.47;1.70;;;24.50;50.30;;;;;;4958565;28;20050;-60
2023/07/13 12:53:27;;;;;;;2.35;1.20;;;24.50;50.50;;;;;;4960033;28;20031;-60
2023/07/13 12:55:55;;;;;;;;;;;24.50;50.00;;;;;;4961375;28;20430;-60